sensor_id;sensor_type;location;lat;lon;timestamp;P1;P2;P0
58740;PMS7003;44512;53.046;18.604;2024-02-16T00:02:52;54;44;29
58740;PMS7003;44512;53.046;18.604;2024-02-16T00:13:21;60;45;29
58740;PMS7003;44512;53.046;18.604;2024-02-16T00:23:49;60;46;31
58740;PMS7003;44512;53.046;18.604;2024-02-16T00:34:17;52;41;28
58740;PMS7003;44512;53.046;18.604;2024-02-16T00:44:46;63;47;30
58740;PMS7003;44512;53.046;18.604;2024-02-16T00:55:14;54;42;27
58740;PMS7003;44512;53.046;18.604;2024-02-16T01:05:43;47;38;28
58740;PMS7003;44512;53.046;18.604;2024-02-16T01:16:11;54;42;28
58740;PMS7003;44512;53.046;18.604;2024-02-16T01:26:39;55;43;29
58740;PMS7003;44512;53.046;18.604;2024-02-16T01:37:08;56;41;28
58740;PMS7003;44512;53.046;18.604;2024-02-16T01:47:37;53;44;29
58740;PMS7003;44512;53.046;18.604;2024-02-16T01:58:05;57;44;29
58740;PMS7003;44512;53.046;18.604;2024-02-16T02:08:34;85;72;46
58740;PMS7003;44512;53.046;18.604;2024-02-16T02:19:02;60;45;30
58740;PMS7003;44512;53.046;18.604;2024-02-16T02:29:30;56;42;29
58740;PMS7003;44512;53.046;18.604;2024-02-16T02:39:59;57;43;29
58740;PMS7003;44512;53.046;18.604;2024-02-16T02:50:27;48;36;23
58740;PMS7003;44512;53.046;18.604;2024-02-16T03:00:56;48;38;27
58740;PMS7003;44512;53.046;18.604;2024-02-16T03:11:25;47;37;26
58740;PMS7003;44512;53.046;18.604;2024-02-16T03:21:53;49;40;27
58740;PMS7003;44512;53.046;18.604;2024-02-16T03:32:21;51;40;27
58740;PMS7003;44512;53.046;18.604;2024-02-16T03:42:50;46;36;25
58740;PMS7003;44512;53.046;18.604;2024-02-16T03:53:18;53;41;27
58740;PMS7003;44512;53.046;18.604;2024-02-16T04:03:47;48;36;25
58740;PMS7003;44512;53.046;18.604;2024-02-16T04:14:15;46;35;25
58740;PMS7003;44512;53.046;18.604;2024-02-16T04:24:43;48;38;26
58740;PMS7003;44512;53.046;18.604;2024-02-16T04:35:12;50;39;26
58740;PMS7003;44512;53.046;18.604;2024-02-16T04:45:40;46;37;26
58740;PMS7003;44512;53.046;18.604;2024-02-16T04:56:09;51;36;25
58740;PMS7003;44512;53.046;18.604;2024-02-16T05:06:40;53;39;27
58740;PMS7003;44512;53.046;18.604;2024-02-16T05:17:06;36;32;22
58740;PMS7003;44512;53.046;18.604;2024-02-16T05:27:34;40;33;24
58740;PMS7003;44512;53.046;18.604;2024-02-16T05:38:03;45;34;24
58740;PMS7003;44512;53.046;18.604;2024-02-16T05:48:31;43;33;23
58740;PMS7003;44512;53.046;18.604;2024-02-16T05:58:59;49;38;25
58740;PMS7003;44512;53.046;18.604;2024-02-16T06:09:28;44;36;26
58740;PMS7003;44512;53.046;18.604;2024-02-16T06:19:56;46;34;25
58740;PMS7003;44512;53.046;18.604;2024-02-16T06:30:24;52;39;26
58740;PMS7003;44512;53.046;18.604;2024-02-16T06:40:53;52;40;28
58740;PMS7003;44512;53.046;18.604;2024-02-16T06:51:25;55;41;27
58740;PMS7003;44512;53.046;18.604;2024-02-16T07:01:50;52;37;27
58740;PMS7003;44512;53.046;18.604;2024-02-16T07:12:18;57;43;30
58740;PMS7003;44512;53.046;18.604;2024-02-16T07:22:47;58;46;31
58740;PMS7003;44512;53.046;18.604;2024-02-16T07:33:15;56;43;30
58740;PMS7003;44512;53.046;18.604;2024-02-16T07:43:44;52;41;26
58740;PMS7003;44512;53.046;18.604;2024-02-16T07:54:12;52;42;28
58740;PMS7003;44512;53.046;18.604;2024-02-16T08:04:41;58;47;31
58740;PMS7003;44512;53.046;18.604;2024-02-16T08:15:09;55;41;29
58740;PMS7003;44512;53.046;18.604;2024-02-16T08:25:38;55;41;27
58740;PMS7003;44512;53.046;18.604;2024-02-16T08:36:07;50;38;26
58740;PMS7003;44512;53.046;18.604;2024-02-16T08:46:35;49;37;26
58740;PMS7003;44512;53.046;18.604;2024-02-16T08:57:03;53;37;26
58740;PMS7003;44512;53.046;18.604;2024-02-16T09:07:31;57;40;28
58740;PMS7003;44512;53.046;18.604;2024-02-16T09:18:00;56;44;28
58740;PMS7003;44512;53.046;18.604;2024-02-16T09:28:28;54;41;29
58740;PMS7003;44512;53.046;18.604;2024-02-16T09:38:57;51;42;28
58740;PMS7003;44512;53.046;18.604;2024-02-16T09:49:25;54;43;29
58740;PMS7003;44512;53.046;18.604;2024-02-16T09:59:54;52;39;27
58740;PMS7003;44512;53.046;18.604;2024-02-16T10:10:22;50;35;24
58740;PMS7003;44512;53.046;18.604;2024-02-16T10:20:50;38;34;23
58740;PMS7003;44512;53.046;18.604;2024-02-16T10:31:19;38;29;19
58740;PMS7003;44512;53.046;18.604;2024-02-16T10:41:47;45;36;24
58740;PMS7003;44512;53.046;18.604;2024-02-16T10:52:16;40;31;20
58740;PMS7003;44512;53.046;18.604;2024-02-16T11:13:12;44;35;23
58740;PMS7003;44512;53.046;18.604;2024-02-16T11:23:41;51;39;26
58740;PMS7003;44512;53.046;18.604;2024-02-16T11:34:10;40;31;20
58740;PMS7003;44512;53.046;18.604;2024-02-16T11:49:34;45;35;24
58740;PMS7003;44512;53.046;18.604;2024-02-16T12:00:03;39;32;22
58740;PMS7003;44512;53.046;18.604;2024-02-16T12:10:31;37;30;20
58740;PMS7003;44512;53.046;18.604;2024-02-16T12:21:00;41;30;21
58740;PMS7003;44512;53.046;18.604;2024-02-16T12:31:29;36;29;21
58740;PMS7003;44512;53.046;18.604;2024-02-16T12:41:57;31;28;19
58740;PMS7003;44512;53.046;18.604;2024-02-16T12:52:25;30;25;17
58740;PMS7003;44512;53.046;18.604;2024-02-16T13:02:53;26;24;19
58740;PMS7003;44512;53.046;18.604;2024-02-16T13:13:22;31;25;19
58740;PMS7003;44512;53.046;18.604;2024-02-16T13:23:50;22;20;15
58740;PMS7003;44512;53.046;18.604;2024-02-16T13:34:18;28;22;16
58740;PMS7003;44512;53.046;18.604;2024-02-16T13:44:47;27;24;18
58740;PMS7003;44512;53.046;18.604;2024-02-16T13:55:15;22;19;14
58740;PMS7003;44512;53.046;18.604;2024-02-16T14:05:44;25;22;15
58740;PMS7003;44512;53.046;18.604;2024-02-16T14:16:12;24;20;15
58740;PMS7003;44512;53.046;18.604;2024-02-16T14:26:40;29;23;18
58740;PMS7003;44512;53.046;18.604;2024-02-16T14:37:09;26;23;18
58740;PMS7003;44512;53.046;18.604;2024-02-16T14:47:37;32;26;19
58740;PMS7003;44512;53.046;18.604;2024-02-16T14:58:05;30;26;18
58740;PMS7003;44512;53.046;18.604;2024-02-16T15:08:34;37;31;20
58740;PMS7003;44512;53.046;18.604;2024-02-16T15:19:02;32;25;17
58740;PMS7003;44512;53.046;18.604;2024-02-16T15:29:31;31;27;19
58740;PMS7003;44512;53.046;18.604;2024-02-16T15:39:59;32;26;19
58740;PMS7003;44512;53.046;18.604;2024-02-16T15:50:27;32;25;18
58740;PMS7003;44512;53.046;18.604;2024-02-16T16:00:56;30;26;18
58740;PMS7003;44512;53.046;18.604;2024-02-16T16:11:24;31;27;19
58740;PMS7003;44512;53.046;18.604;2024-02-16T16:21:52;31;26;19
58740;PMS7003;44512;53.046;18.604;2024-02-16T16:32:21;33;27;19
58740;PMS7003;44512;53.046;18.604;2024-02-16T16:42:49;38;31;22
58740;PMS7003;44512;53.046;18.604;2024-02-16T16:53:17;33;29;20
58740;PMS7003;44512;53.046;18.604;2024-02-16T17:03:46;40;31;22
58740;PMS7003;44512;53.046;18.604;2024-02-16T17:14:14;29;28;21
58740;PMS7003;44512;53.046;18.604;2024-02-16T17:24:43;33;30;21
58740;PMS7003;44512;53.046;18.604;2024-02-16T17:35:11;32;24;16
58740;PMS7003;44512;53.046;18.604;2024-02-16T17:45:39;28;23;17
58740;PMS7003;44512;53.046;18.604;2024-02-16T17:56:08;27;22;17
58740;PMS7003;44512;53.046;18.604;2024-02-16T18:06:36;27;22;16
58740;PMS7003;44512;53.046;18.604;2024-02-16T18:17:04;23;20;15
58740;PMS7003;44512;53.046;18.604;2024-02-16T18:27:33;23;19;14
58740;PMS7003;44512;53.046;18.604;2024-02-16T18:38:01;20;18;14
58740;PMS7003;44512;53.046;18.604;2024-02-16T18:48:30;21;18;13
58740;PMS7003;44512;53.046;18.604;2024-02-16T18:58:58;23;21;16
58740;PMS7003;44512;53.046;18.604;2024-02-16T19:09:26;25;21;15
58740;PMS7003;44512;53.046;18.604;2024-02-16T19:19:55;20;15;10
58740;PMS7003;44512;53.046;18.604;2024-02-16T19:30:23;27;21;16
58740;PMS7003;44512;53.046;18.604;2024-02-16T19:40:52;23;20;14
58740;PMS7003;44512;53.046;18.604;2024-02-16T19:51:20;23;20;14
58740;PMS7003;44512;53.046;18.604;2024-02-16T20:01:49;20;18;14
58740;PMS7003;44512;53.046;18.604;2024-02-16T20:12:17;24;21;16
58740;PMS7003;44512;53.046;18.604;2024-02-16T20:22:45;21;17;12
58740;PMS7003;44512;53.046;18.604;2024-02-16T20:33:14;21;17;14
58740;PMS7003;44512;53.046;18.604;2024-02-16T20:43:42;20;18;13
58740;PMS7003;44512;53.046;18.604;2024-02-16T20:54:11;21;18;12
58740;PMS7003;44512;53.046;18.604;2024-02-16T21:04:39;18;15;12
58740;PMS7003;44512;53.046;18.604;2024-02-16T21:15:08;21;18;13
58740;PMS7003;44512;53.046;18.604;2024-02-16T21:25:36;17;13;9
58740;PMS7003;44512;53.046;18.604;2024-02-16T21:36:05;23;18;13
58740;PMS7003;44512;53.046;18.604;2024-02-16T21:46:33;23;20;15
58740;PMS7003;44512;53.046;18.604;2024-02-16T21:57:01;27;22;15
58740;PMS7003;44512;53.046;18.604;2024-02-16T22:07:29;24;22;17
58740;PMS7003;44512;53.046;18.604;2024-02-16T22:17:58;28;25;16
58740;PMS7003;44512;53.046;18.604;2024-02-16T22:28:26;28;23;18
58740;PMS7003;44512;53.046;18.604;2024-02-16T22:38:55;23;19;14
58740;PMS7003;44512;53.046;18.604;2024-02-16T22:49:23;22;20;14
58740;PMS7003;44512;53.046;18.604;2024-02-16T22:59:52;27;24;18
58740;PMS7003;44512;53.046;18.604;2024-02-16T23:10:20;26;23;16
58740;PMS7003;44512;53.046;18.604;2024-02-16T23:20:48;29;26;18
58740;PMS7003;44512;53.046;18.604;2024-02-16T23:31:17;28;25;17
58740;PMS7003;44512;53.046;18.604;2024-02-16T23:41:45;33;26;18
58740;PMS7003;44512;53.046;18.604;2024-02-16T23:52:13;33;28;19
